Time;durP1;ratioP1;P1;durP2;ratioP2;P2;SDS_P1;SDS_P2;PMS_P1;PMS_P2;Temp;Humidity;BMP_temperature;BMP_pressure;BME280_temperature;BME280_humidity;BME280_pressure;Samples;Min_cycle;Max_cycle;Signal;HPM_P1;HPM_P2
2022/01/02 00:01:46;;;;;;;2.70;2.45;;;10.70;99.90;;;;;;5059156;28;20094;-81
2022/01/02 00:04:17;;;;;;;4.30;2.72;;;10.70;99.90;;;;;;5058808;28;20094;-80
2022/01/02 00:06:49;;;;;;;4.80;2.83;;;10.70;99.90;;;;;;5060396;28;20115;-80
2022/01/02 00:09:19;;;;;;;;;;;10.70;99.90;;;;;;5060443;28;20041;-80
2022/01/02 00:11:45;;;;;;;4.03;3.67;;;10.70;99.90;;;;;;5058936;28;19964;-81
2022/01/02 00:14:13;;;;;;;3.60;3.13;;;10.70;99.90;;;;;;5057399;28;20381;-80
2022/01/02 00:16:39;;;;;;;7.18;2.53;;;10.70;99.90;;;;;;5060537;28;20041;-80
2022/01/02 00:19:19;;;;;;;3.33;2.42;;;10.70;99.90;;;;;;5059551;28;20036;-80
2022/01/02 00:21:46;;;;;;;6.07;2.17;;;10.70;99.90;;;;;;5058860;28;20044;-80
2022/01/02 00:24:17;;;;;;;2.78;2.58;;;10.70;99.90;;;;;;5059470;28;20064;-80
2022/01/02 00:26:45;;;;;;;2.20;2.00;;;10.70;99.90;;;;;;5058997;28;20098;-80
2022/01/02 00:29:12;;;;;;;2.50;1.70;;;10.70;99.90;;;;;;5055040;28;20032;-81
2022/01/02 00:31:39;;;;;;;5.43;2.53;;;10.70;99.90;;;;;;5040309;28;20503;-80
2022/01/02 00:34:06;;;;;;;5.05;2.95;;;10.70;99.90;;;;;;5042384;28;20041;-80
2022/01/02 00:36:32;;;;;;;6.93;2.78;;;10.60;99.90;;;;;;5043749;28;20043;-80
2022/01/02 00:38:58;;;;;;;3.92;2.55;;;10.60;99.90;;;;;;5043628;28;20056;-80
2022/01/02 00:41:35;;;;;;;3.00;2.55;;;10.60;99.90;;;;;;5042425;28;20052;-80
2022/01/02 00:44:13;;;;;;;5.15;3.17;;;10.70;99.90;;;;;;5042478;28;20077;-80
2022/01/02 00:46:51;;;;;;;2.22;1.98;;;10.60;99.90;;;;;;5042216;28;20124;-80
2022/01/02 00:49:24;;;;;;;3.75;3.13;;;10.70;99.90;;;;;;5043674;28;20091;-81
2022/01/02 00:51:55;;;;;;;3.72;2.70;;;10.60;99.90;;;;;;5042511;28;20052;-80
2022/01/02 00:54:27;;;;;;;6.35;2.72;;;10.60;99.90;;;;;;5043873;28;20072;-80
2022/01/02 00:57:06;;;;;;;2.70;2.50;;;10.60;99.90;;;;;;5041578;28;20083;-80
2022/01/02 01:00:16;;;;;;;2.97;2.72;;;10.60;99.90;;;;;;5041866;28;20136;-80
2022/01/02 01:02:48;;;;;;;2.17;2.08;;;10.60;99.90;;;;;;5042015;28;20052;-80
2022/01/02 01:05:35;;;;;;;10.95;3.58;;;10.60;99.90;;;;;;5041439;28;20136;-80
2022/01/02 01:08:04;;;;;;;1.92;1.63;;;10.60;99.90;;;;;;5041452;28;20116;-80
2022/01/02 01:10:32;;;;;;;2.75;2.20;;;10.60;99.90;;;;;;5041798;28;20595;-80
2022/01/02 01:13:01;;;;;;;4.85;2.78;;;10.60;99.90;;;;;;5040373;28;20044;-80
2022/01/02 01:15:28;;;;;;;8.35;1.73;;;10.60;99.90;;;;;;5043028;28;20041;-81
2022/01/02 01:17:56;;;;;;;10.40;2.90;;;10.60;99.90;;;;;;5042623;28;20045;-81
2022/01/02 01:20:23;;;;;;;3.83;2.20;;;10.60;99.90;;;;;;5043087;28;20059;-81
2022/01/02 01:22:49;;;;;;;2.45;1.90;;;10.60;99.90;;;;;;5058523;28;20285;-80
2022/01/02 01:25:18;;;;;;;4.53;3.00;;;10.60;99.90;;;;;;5042124;28;20531;-81
2022/01/02 01:27:44;;;;;;;2.03;1.92;;;10.60;99.90;;;;;;5042033;28;20056;-81
2022/01/02 01:30:12;;;;;;;4.40;3.00;;;10.60;99.90;;;;;;5053880;28;20052;-80
2022/01/02 01:32:38;;;;;;;4.57;3.33;;;10.60;99.90;;;;;;5062507;28;20028;-80
2022/01/02 01:35:05;;;;;;;4.88;2.92;;;10.60;99.90;;;;;;5062219;28;20043;-80
2022/01/02 01:37:30;;;;;;;5.40;3.63;;;10.60;99.90;;;;;;5062415;28;20506;-80
2022/01/02 01:39:57;;;;;;;5.28;2.53;;;10.60;99.90;;;;;;5061776;28;20044;-81
2022/01/02 01:42:41;;;;;;;2.33;2.08;;;10.60;99.90;;;;;;5060979;28;20071;-80
2022/01/02 01:48:01;;;;;;;3.67;2.38;;;10.60;99.90;;;;;;5061296;28;20483;-80
2022/01/02 01:50:28;;;;;;;;;;;10.60;99.90;;;;;;5044346;28;20052;-81
2022/01/02 01:52:54;;;;;;;5.00;4.50;;;10.60;99.90;;;;;;5061852;28;19920;-80
2022/01/02 01:55:20;;;;;;;14.18;3.97;;;10.60;99.90;;;;;;5062226;28;20055;-81
2022/01/02 01:57:46;;;;;;;5.90;2.83;;;10.60;99.90;;;;;;5061236;28;20490;-80
2022/01/02 02:00:15;;;;;;;6.80;3.15;;;10.60;99.90;;;;;;5060234;28;20071;-80
2022/01/02 02:02:42;;;;;;;6.03;4.13;;;10.60;99.90;;;;;;5061779;28;20044;-80
2022/01/02 02:05:08;;;;;;;13.38;3.72;;;10.60;99.90;;;;;;5060193;28;20048;-81
2022/01/02 02:07:40;;;;;;;8.63;3.80;;;10.60;99.90;;;;;;5061367;28;20036;-80
2022/01/02 02:10:23;;;;;;;6.90;4.22;;;10.60;99.90;;;;;;5061732;28;20082;-80
2022/01/02 02:12:51;;;;;;;4.68;2.58;;;10.60;99.90;;;;;;5059863;28;20134;-80
2022/01/02 02:15:17;;;;;;;2.20;2.00;;;10.60;99.90;;;;;;5062124;28;20106;-80
2022/01/02 02:17:44;;;;;;;4.07;2.95;;;10.60;99.90;;;;;;5060303;28;20102;-81
2022/01/02 02:20:14;;;;;;;6.07;2.78;;;10.60;99.90;;;;;;5061429;28;20050;-80
2022/01/02 02:22:42;;;;;;;9.93;3.67;;;10.60;99.90;;;;;;5060247;28;20041;-81
2022/01/02 02:25:10;;;;;;;4.57;3.53;;;10.60;99.90;;;;;;5076536;28;20048;-81
2022/01/02 02:27:36;;;;;;;6.72;3.08;;;10.60;99.90;;;;;;5060644;28;20052;-81
2022/01/02 02:30:03;;;;;;;4.78;3.78;;;10.60;99.90;;;;;;5049369;28;20186;-81
2022/01/02 02:32:29;;;;;;;4.18;3.13;;;10.60;99.90;;;;;;5040264;28;20053;-81
2022/01/02 02:34:55;;;;;;;5.88;3.55;;;10.50;99.90;;;;;;5039577;28;20044;-81
2022/01/02 02:37:20;;;;;;;3.35;2.72;;;10.50;99.90;;;;;;5041977;28;20045;-81
2022/01/02 02:39:46;;;;;;;5.10;2.13;;;10.50;99.90;;;;;;5041556;28;20103;-81
2022/01/02 02:42:25;;;;;;;2.22;2.13;;;10.50;99.90;;;;;;5055585;28;20471;-82
2022/01/02 02:44:58;;;;;;;6.80;4.00;;;10.50;99.90;;;;;;5041626;28;20374;-81
2022/01/02 02:50:08;;;;;;;3.00;2.80;;;10.40;99.90;;;;;;5040523;28;20466;-82
2022/01/02 02:52:44;;;;;;;3.40;3.10;;;10.40;99.90;;;;;;5039972;28;20045;-81
2022/01/02 02:55:10;;;;;;;2.75;2.50;;;10.40;99.90;;;;;;5040329;28;20056;-82
2022/01/02 02:57:38;;;;;;;7.15;3.70;;;10.40;99.90;;;;;;5038644;28;20411;-82
2022/01/02 03:00:04;;;;;;;5.78;4.35;;;10.40;99.90;;;;;;5040720;28;20064;-82
2022/01/02 03:02:30;;;;;;;3.72;3.35;;;10.40;99.90;;;;;;5040833;28;20445;-82
2022/01/02 03:04:55;;;;;;;5.85;3.63;;;10.40;99.90;;;;;;5039243;28;20049;-82
2022/01/02 03:07:21;;;;;;;5.63;3.55;;;10.40;99.90;;;;;;5040073;28;20048;-81
2022/01/02 03:09:49;;;;;;;5.40;4.05;;;10.40;99.90;;;;;;5041432;28;20450;-82
2022/01/02 03:12:15;;;;;;;6.80;3.55;;;10.40;99.90;;;;;;5039674;28;20495;-82
2022/01/02 03:14:41;;;;;;;4.03;3.53;;;10.40;99.90;;;;;;5040773;28;20073;-82
2022/01/02 03:17:07;;;;;;;3.35;3.05;;;10.40;99.90;;;;;;5039543;28;20102;-81
2022/01/02 03:19:33;;;;;;;6.43;4.30;;;10.40;99.90;;;;;;5041153;28;20396;-82
2022/01/02 03:21:59;;;;;;;12.57;4.15;;;10.40;99.90;;;;;;5022437;28;20041;-81
2022/01/02 03:24:25;;;;;;;8.38;3.72;;;10.40;99.90;;;;;;5039163;28;20079;-81
2022/01/02 03:26:51;;;;;;;3.55;3.35;;;10.40;99.90;;;;;;5039752;28;20045;-82
2022/01/02 03:29:16;;;;;;;3.95;3.63;;;10.40;99.90;;;;;;5043838;28;20108;-82
2022/01/02 03:31:42;;;;;;;5.45;2.72;;;10.40;99.90;;;;;;5060901;28;20037;-82
2022/01/02 03:34:07;;;;;;;5.88;4.75;;;10.40;99.90;;;;;;5060106;28;20071;-82
2022/01/02 03:36:33;;;;;;;14.65;3.92;;;10.40;99.90;;;;;;5060731;28;20036;-82
2022/01/02 03:38:59;;;;;;;3.15;2.20;;;10.40;99.90;;;;;;5058937;28;20036;-83
2022/01/02 03:41:24;;;;;;;6.13;3.47;;;10.40;99.90;;;;;;5060586;28;20479;-82
2022/01/02 03:43:50;;;;;;;4.00;3.17;;;10.40;99.90;;;;;;5058792;28;20037;-82
2022/01/02 03:46:15;;;;;;;5.50;3.25;;;10.40;99.90;;;;;;5058268;28;20688;-82
2022/01/02 03:48:41;;;;;;;2.97;2.78;;;10.40;99.90;;;;;;5059357;28;20311;-83
2022/01/02 03:51:06;;;;;;;5.70;3.45;;;10.40;99.90;;;;;;5060059;28;20082;-83
2022/01/02 03:53:32;;;;;;;4.57;2.88;;;10.40;99.90;;;;;;5060823;28;20033;-83
2022/01/02 03:55:58;;;;;;;5.85;2.72;;;10.40;99.90;;;;;;5060062;28;20047;-83
2022/01/02 03:58:23;;;;;;;2.95;2.53;;;10.40;99.90;;;;;;5059593;28;20394;-83
2022/01/02 04:00:49;;;;;;;6.00;3.30;;;10.40;99.90;;;;;;5059322;28;20040;-83
2022/01/02 04:03:15;;;;;;;4.55;3.13;;;10.40;99.90;;;;;;5058553;28;20119;-83
2022/01/02 04:05:42;;;;;;;3.58;2.97;;;10.40;99.90;;;;;;5058904;28;20132;-83
2022/01/02 04:08:08;;;;;;;11.70;3.42;;;10.40;99.90;;;;;;5061857;28;20036;-83
2022/01/02 04:10:33;;;;;;;4.63;2.88;;;10.40;99.90;;;;;;5063603;28;20040;-84
2022/01/02 04:12:59;;;;;;;3.78;3.33;;;10.40;99.90;;;;;;5063138;28;20127;-84
2022/01/02 04:15:25;;;;;;;11.00;3.78;;;10.40;99.90;;;;;;5063923;28;20082;-84
2022/01/02 04:17:50;;;;;;;5.88;3.72;;;10.40;99.90;;;;;;5063195;28;20047;-83
2022/01/02 04:20:16;;;;;;;3.70;3.33;;;10.30;99.90;;;;;;5063998;28;20055;-84
2022/01/02 04:22:43;;;;;;;6.22;2.53;;;10.40;99.90;;;;;;5062495;28;20052;-84
2022/01/02 04:25:09;;;;;;;4.00;3.60;;;10.30;99.90;;;;;;5045377;28;20049;-84
2022/01/02 04:27:34;;;;;;;3.80;2.90;;;10.40;99.90;;;;;;5062847;28;20045;-84
2022/01/02 04:30:00;;;;;;;3.00;2.50;;;10.30;99.90;;;;;;5052861;28;20047;-84
2022/01/02 04:32:26;;;;;;;5.55;3.15;;;10.30;99.90;;;;;;5043571;28;20045;-84
2022/01/02 04:34:51;;;;;;;7.65;3.58;;;10.30;99.90;;;;;;5043572;28;20045;-83
2022/01/02 04:37:17;;;;;;;8.90;4.30;;;10.30;99.90;;;;;;5043973;28;20559;-83
2022/01/02 04:39:44;;;;;;;3.80;3.45;;;10.30;99.90;;;;;;5043262;28;20049;-84
2022/01/02 04:42:10;;;;;;;5.80;3.33;;;10.30;99.90;;;;;;5042819;28;20095;-84
2022/01/02 04:44:36;;;;;;;11.75;4.07;;;10.30;99.90;;;;;;5043801;28;20070;-84
2022/01/02 04:47:01;;;;;;;3.05;2.72;;;10.30;99.90;;;;;;5043273;28;20048;-84
2022/01/02 04:49:27;;;;;;;4.93;2.90;;;10.30;99.90;;;;;;5042314;28;20474;-84
2022/01/02 04:51:53;;;;;;;4.57;2.53;;;10.30;99.90;;;;;;5042829;28;20044;-83
2022/01/02 04:54:19;;;;;;;3.03;2.83;;;10.30;99.90;;;;;;5042480;28;20505;-83
2022/01/02 04:56:45;;;;;;;6.32;3.28;;;10.30;99.90;;;;;;5042553;28;20102;-83
2022/01/02 04:59:11;;;;;;;5.00;3.45;;;10.30;99.90;;;;;;5042942;28;20557;-83
2022/01/02 05:01:36;;;;;;;5.25;3.20;;;10.30;99.90;;;;;;5043412;28;20037;-83
2022/01/02 05:04:02;;;;;;;8.68;4.00;;;10.40;99.90;;;;;;5042871;28;20041;-83
2022/01/02 05:06:27;;;;;;;10.00;3.00;;;10.30;99.90;;;;;;5042006;28;20085;-83
2022/01/02 05:08:53;;;;;;;3.70;3.13;;;10.30;99.90;;;;;;5058093;28;20044;-83
2022/01/02 05:11:18;;;;;;;4.68;3.17;;;10.30;99.90;;;;;;5042209;28;20535;-83
2022/01/02 05:13:44;;;;;;;11.45;2.33;;;10.30;99.90;;;;;;5043303;28;20037;-83
2022/01/02 05:16:10;;;;;;;3.28;3.08;;;10.30;99.90;;;;;;5042991;28;20033;-83
2022/01/02 05:18:36;;;;;;;7.80;3.55;;;10.40;99.90;;;;;;5041416;28;20060;-83
2022/01/02 05:21:02;;;;;;;12.32;3.00;;;10.40;99.90;;;;;;5042848;28;21076;-83
2022/01/02 05:23:29;;;;;;;2.22;1.90;;;10.40;99.90;;;;;;5042511;28;20450;-83
2022/01/02 05:25:55;;;;;;;4.18;2.78;;;10.40;99.90;;;;;;5042618;28;20049;-83
2022/01/02 05:28:21;;;;;;;9.00;2.47;;;10.40;99.90;;;;;;5042237;28;20083;-83
2022/01/02 05:30:46;;;;;;;5.40;3.13;;;10.40;99.90;;;;;;5058817;28;20417;-83
2022/01/02 05:33:12;;;;;;;5.05;3.13;;;10.40;99.90;;;;;;5062034;28;20036;-83
2022/01/02 05:35:38;;;;;;;2.63;2.40;;;10.40;99.90;;;;;;5061025;28;20048;-83
2022/01/02 05:38:04;;;;;;;4.05;3.70;;;10.40;99.90;;;;;;5062447;28;20605;-82
2022/01/02 05:40:33;;;;;;;2.33;2.08;;;10.40;99.90;;;;;;5062806;28;20102;-83
2022/01/02 05:43:00;;;;;;;3.17;2.40;;;10.40;99.90;;;;;;5061241;28;20721;-83
2022/01/02 05:45:26;;;;;;;6.22;1.95;;;10.50;99.90;;;;;;5062591;28;20103;-83
2022/01/02 05:47:51;;;;;;;10.73;2.38;;;10.40;99.90;;;;;;5062291;28;20618;-80
2022/01/02 05:50:17;;;;;;;2.60;2.40;;;10.50;99.90;;;;;;5062935;28;20135;-83
2022/01/02 05:52:42;;;;;;;2.35;1.85;;;10.50;99.90;;;;;;5061185;28;20047;-83
2022/01/02 05:55:08;;;;;;;17.08;3.20;;;10.50;99.90;;;;;;5061990;28;20044;-83
2022/01/02 05:57:33;;;;;;;1.77;1.63;;;10.50;99.90;;;;;;5061135;28;20040;-82
2022/01/02 05:59:59;;;;;;;2.38;1.98;;;10.50;99.90;;;;;;5061773;28;20060;-83
2022/01/02 06:02:24;;;;;;;4.32;2.90;;;10.50;99.90;;;;;;5062086;28;20098;-82
2022/01/02 06:04:50;;;;;;;2.97;2.33;;;10.50;99.90;;;;;;5062445;28;20048;-82
2022/01/02 06:07:16;;;;;;;8.88;2.35;;;10.50;99.90;;;;;;5061809;28;20045;-82
2022/01/02 06:09:42;;;;;;;3.30;2.40;;;10.50;99.90;;;;;;5062019;28;20510;-82
2022/01/02 06:12:07;;;;;;;8.63;2.45;;;10.50;99.90;;;;;;5060599;28;20040;-83
2022/01/02 06:14:33;;;;;;;3.47;3.08;;;10.50;99.90;;;;;;5062077;28;20076;-83
2022/01/02 06:16:58;;;;;;;3.17;2.22;;;10.60;99.90;;;;;;5061383;28;20058;-82
2022/01/02 06:19:24;;;;;;;3.10;2.80;;;10.50;99.90;;;;;;5061358;28;20064;-82
2022/01/02 06:21:49;;;;;;;2.20;2.03;;;10.50;99.90;;;;;;5060882;28;20110;-82
2022/01/02 06:24:15;;;;;;;3.58;2.03;;;10.50;99.90;;;;;;5059799;28;20752;-82
2022/01/02 06:26:41;;;;;;;2.95;2.70;;;10.50;99.90;;;;;;5060990;28;21158;-82
2022/01/02 06:29:06;;;;;;;3.80;2.08;;;10.50;99.90;;;;;;5056337;28;20060;-82
2022/01/02 06:31:32;;;;;;;1.80;1.70;;;10.50;99.90;;;;;;5041111;28;20041;-82
2022/01/02 06:33:57;;;;;;;2.53;1.63;;;10.50;99.90;;;;;;5039446;28;20047;-82
2022/01/02 06:36:23;;;;;;;11.77;1.42;;;10.60;99.90;;;;;;5041435;28;20045;-82
2022/01/02 06:38:48;;;;;;;3.55;1.88;;;10.50;99.90;;;;;;5041930;28;20657;-82
2022/01/02 06:41:14;;;;;;;2.53;2.33;;;10.60;99.90;;;;;;5039036;28;20041;-81
2022/01/02 06:43:40;;;;;;;5.47;0.98;;;10.60;99.90;;;;;;5041025;28;20403;-82
2022/01/02 06:46:06;;;;;;;2.83;1.70;;;10.60;99.90;;;;;;5041155;28;20048;-81
2022/01/02 06:48:32;;;;;;;5.70;1.95;;;10.60;99.90;;;;;;5041111;28;20067;-82
2022/01/02 06:50:58;;;;;;;1.95;1.80;;;10.60;99.90;;;;;;5041077;28;20045;-82
2022/01/02 06:53:24;;;;;;;1.75;1.65;;;10.60;99.90;;;;;;5039902;28;20049;-81
2022/01/02 06:55:49;;;;;;;3.25;1.92;;;10.60;99.90;;;;;;5039858;28;20052;-81
2022/01/02 06:58:15;;;;;;;2.75;2.17;;;10.60;99.90;;;;;;5039892;28;20033;-81
2022/01/02 07:00:41;;;;;;;2.28;1.77;;;10.60;99.90;;;;;;5041258;28;20051;-82
2022/01/02 07:03:07;;;;;;;3.72;3.00;;;10.60;99.90;;;;;;5039910;28;20059;-82
2022/01/02 07:05:33;;;;;;;1.10;1.00;;;10.60;99.90;;;;;;5041363;28;20048;-81
2022/01/02 07:07:58;;;;;;;3.42;1.75;;;10.60;99.90;;;;;;5040664;28;20096;-81
2022/01/02 07:10:24;;;;;;;9.88;1.25;;;10.60;99.90;;;;;;5039979;28;20053;-81
2022/01/02 07:12:50;;;;;;;1.88;1.65;;;10.60;99.90;;;;;;5040207;28;20052;-82
2022/01/02 07:15:15;;;;;;;1.95;1.63;;;10.70;99.90;;;;;;5040374;28;20406;-81
2022/01/02 07:17:41;;;;;;;0.85;0.73;;;10.70;99.90;;;;;;5040918;28;20194;-81
2022/01/02 07:20:09;;;;;;;1.55;1.45;;;10.70;99.90;;;;;;5038809;28;20045;-81
2022/01/02 07:22:35;;;;;;;10.18;1.85;;;10.70;99.90;;;;;;5040902;28;20037;-81
2022/01/02 07:25:01;;;;;;;1.65;1.10;;;10.70;99.90;;;;;;5039341;28;20119;-81
2022/01/02 07:27:26;;;;;;;5.38;1.05;;;10.70;99.90;;;;;;5039106;28;20596;-81
2022/01/02 07:29:54;;;;;;;3.10;1.77;;;10.80;99.90;;;;;;5049670;28;20049;-81
2022/01/02 07:32:20;;;;;;;1.48;1.38;;;10.80;99.90;;;;;;5060753;28;20048;-81
2022/01/02 07:34:46;;;;;;;20.65;1.55;;;10.80;99.90;;;;;;5060643;28;20488;-81
2022/01/02 07:37:12;;;;;;;2.08;1.92;;;10.80;99.90;;;;;;5060396;28;20044;-81
2022/01/02 07:39:37;;;;;;;6.50;1.20;;;10.80;99.90;;;;;;5060321;28;20171;-81
2022/01/02 07:42:04;;;;;;;1.08;1.08;;;10.90;99.90;;;;;;5062783;28;20052;-81
2022/01/02 07:44:29;;;;;;;1.17;1.08;;;10.90;99.90;;;;;;5063027;28;20483;-81
2022/01/02 07:46:55;;;;;;;2.25;1.65;;;10.90;99.90;;;;;;5063074;28;20055;-81
2022/01/02 07:49:21;;;;;;;4.82;2.22;;;10.90;99.90;;;;;;5065024;28;20068;-81
2022/01/02 07:51:47;;;;;;;2.67;2.08;;;10.80;99.90;;;;;;5065247;28;20036;-81
2022/01/02 07:54:13;;;;;;;1.75;1.00;;;10.80;99.90;;;;;;5064292;28;20046;-81
2022/01/02 07:56:39;;;;;;;1.27;1.17;;;10.80;99.90;;;;;;5063623;28;20044;-81
2022/01/02 07:59:05;;;;;;;2.33;1.45;;;10.70;99.90;;;;;;5064062;28;20550;-82
2022/01/02 08:01:30;;;;;;;2.90;1.60;;;10.70;99.90;;;;;;5062924;28;20135;-81
2022/01/02 08:03:56;;;;;;;0.98;0.98;;;10.70;99.90;;;;;;5063571;28;20371;-81
2022/01/02 08:06:22;;;;;;;2.40;1.65;;;10.70;99.90;;;;;;5062928;28;20686;-81
2022/01/02 08:08:47;;;;;;;1.20;1.17;;;10.70;99.90;;;;;;5064556;28;20045;-80
2022/01/02 08:11:17;;;;;;;1.75;1.38;;;10.70;99.90;;;;;;5063182;28;20102;-81
2022/01/02 08:13:44;;;;;;;6.47;1.48;;;10.70;99.90;;;;;;5080253;28;20402;-81
2022/01/02 08:16:10;;;;;;;7.68;1.58;;;10.70;99.90;;;;;;5063781;28;20048;-81
2022/01/02 08:18:35;;;;;;;1.65;1.55;;;10.70;99.90;;;;;;5064003;28;20067;-81
2022/01/02 08:21:01;;;;;;;1.55;1.35;;;10.70;99.90;;;;;;5063673;28;20491;-81
2022/01/02 08:23:27;;;;;;;1.30;1.27;;;10.70;99.90;;;;;;5062318;28;20490;-81
2022/01/02 08:25:52;;;;;;;2.58;2.10;;;10.70;99.90;;;;;;5062511;28;20052;-81
2022/01/02 08:28:19;;;;;;;1.52;1.42;;;10.60;99.90;;;;;;5064010;28;20542;-81
2022/01/02 08:30:45;;;;;;;1.85;1.75;;;10.60;99.90;;;;;;5046889;28;20500;-80
2022/01/02 08:33:10;;;;;;;1.65;1.13;;;10.60;99.90;;;;;;5041957;28;20071;-81
2022/01/02 08:35:37;;;;;;;1.60;1.50;;;10.60;99.90;;;;;;5042784;28;20598;-80
2022/01/02 08:38:03;;;;;;;0.98;0.98;;;10.60;99.90;;;;;;5043558;28;20080;-80
2022/01/02 08:40:29;;;;;;;0.95;0.95;;;10.60;99.90;;;;;;5043856;28;20092;-81
2022/01/02 08:42:55;;;;;;;1.42;1.15;;;10.60;99.90;;;;;;5042661;28;20041;-81
2022/01/02 08:45:20;;;;;;;0.70;0.70;;;10.60;99.90;;;;;;5044040;28;20071;-81
2022/01/02 08:47:46;;;;;;;1.73;1.63;;;10.60;99.90;;;;;;5044334;28;20124;-81
2022/01/02 08:50:11;;;;;;;2.45;1.55;;;10.60;99.90;;;;;;5060290;28;20068;-80
2022/01/02 08:52:37;;;;;;;1.92;1.35;;;10.60;99.90;;;;;;5062093;28;20591;-81
2022/01/02 08:55:04;;;;;;;3.42;1.58;;;10.60;99.90;;;;;;5062195;28;20504;-81
2022/01/02 08:57:29;;;;;;;2.92;2.03;;;10.60;99.90;;;;;;5062428;28;20090;-81
2022/01/02 08:59:55;;;;;;;1.40;1.30;;;10.60;99.90;;;;;;5061628;28;20107;-81
2022/01/02 09:02:20;;;;;;;3.40;1.77;;;10.60;99.90;;;;;;5055173;28;20238;-80
2022/01/02 09:04:46;;;;;;;1.90;1.80;;;10.60;99.90;;;;;;5062003;28;20127;-80
2022/01/02 09:07:11;;;;;;;1.23;1.13;;;10.60;99.90;;;;;;5047772;28;20049;-80
2022/01/02 09:09:37;;;;;;;1.95;1.20;;;10.60;99.90;;;;;;5043102;28;20045;-82
2022/01/02 09:12:03;;;;;;;1.90;1.73;;;10.60;99.90;;;;;;5041314;28;20132;-81
2022/01/02 09:14:29;;;;;;;1.42;1.33;;;10.60;99.90;;;;;;5057689;28;20040;-79
2022/01/02 09:16:54;;;;;;;2.70;2.05;;;10.60;99.90;;;;;;5042549;28;20041;-80
2022/01/02 09:19:20;;;;;;;2.33;2.10;;;10.60;99.90;;;;;;5050404;28;20041;-83
2022/01/02 09:21:45;;;;;;;3.05;2.28;;;10.60;99.90;;;;;;5044607;28;20060;-81
2022/01/02 09:24:11;;;;;;;2.00;1.52;;;10.60;99.90;;;;;;5060881;28;20139;-81
2022/01/02 09:26:37;;;;;;;3.67;2.10;;;10.60;99.90;;;;;;5048741;28;20074;-86
2022/01/02 09:29:03;;;;;;;1.20;1.15;;;10.60;99.90;;;;;;5053958;28;20048;-84
2022/01/02 09:31:29;;;;;;;0.90;0.90;;;10.60;99.90;;;;;;5054269;28;20037;-89
2022/01/02 09:33:55;;;;;;;1.45;1.30;;;10.50;99.90;;;;;;5040740;28;20056;-93
2022/01/02 09:36:20;;;;;;;4.05;2.90;;;10.50;99.90;;;;;;5052157;28;20076;-87
2022/01/02 09:38:47;;;;;;;2.30;2.10;;;10.50;99.90;;;;;;5060929;28;20033;-86
2022/01/02 09:41:13;;;;;;;1.85;1.75;;;10.50;99.90;;;;;;5058643;28;20049;-88
2022/01/02 09:43:38;;;;;;;2.13;1.77;;;10.50;99.90;;;;;;5048871;28;20040;-86
2022/01/02 09:46:04;;;;;;;3.40;2.85;;;10.50;99.90;;;;;;5060673;28;20048;-91
2022/01/02 09:48:31;;;;;;;2.60;1.92;;;10.50;99.90;;;;;;5051642;28;20036;-90
2022/01/02 09:50:57;;;;;;;2.33;2.22;;;10.50;99.90;;;;;;5042045;28;20044;-87
2022/01/02 09:53:23;;;;;;;2.20;2.10;;;10.50;99.90;;;;;;5046889;28;20048;-80
2022/01/02 09:55:49;;;;;;;6.05;2.63;;;10.50;99.90;;;;;;5044923;28;20056;-80
2022/01/02 09:58:15;;;;;;;2.83;1.85;;;10.50;99.90;;;;;;5052660;28;20066;-80
2022/01/02 10:00:48;;;;;;;7.47;3.08;;;10.50;99.90;;;;;;5055093;28;20052;-80
2022/01/02 10:03:14;;;;;;;1.98;1.88;;;10.50;99.90;;;;;;5051276;28;20036;-80
2022/01/02 10:05:59;;;;;;;3.30;3.00;;;10.50;99.90;;;;;;5056420;28;20547;-80
2022/01/02 10:08:28;;;;;;;5.75;2.88;;;10.60;99.90;;;;;;5061501;28;20044;-80
2022/01/02 10:11:05;;;;;;;6.95;2.17;;;10.50;99.90;;;;;;5060532;28;20041;-81
2022/01/02 10:13:42;;;;;;;9.07;3.33;;;10.50;99.90;;;;;;5062084;28;20052;-80
2022/01/02 10:16:37;;;;;;;10.25;1.60;;;10.50;99.90;;;;;;5048987;28;20136;-80
2022/01/02 10:19:32;;;;;;;3.08;2.85;;;10.50;99.90;;;;;;5072455;28;20040;-81
2022/01/02 10:22:03;;;;;;;16.27;2.53;;;10.50;99.90;;;;;;5043940;28;20064;-80
2022/01/02 10:24:30;;;;;;;2.47;2.28;;;10.50;99.90;;;;;;5054376;28;20057;-80
2022/01/02 10:27:16;;;;;;;2.65;2.38;;;10.50;99.90;;;;;;5055724;28;20055;-80
2022/01/02 10:29:44;;;;;;;10.88;2.72;;;10.50;99.90;;;;;;5054103;28;20088;-80
2022/01/02 10:32:22;;;;;;;11.32;3.33;;;10.50;99.90;;;;;;5057705;28;21118;-81
2022/01/02 10:34:49;;;;;;;5.47;2.10;;;10.50;99.90;;;;;;5060440;28;20391;-80
2022/01/02 10:37:25;;;;;;;2.97;2.13;;;10.50;99.90;;;;;;5057592;28;20028;-80
2022/01/02 10:39:51;;;;;;;2.33;2.00;;;10.50;99.90;;;;;;5051360;28;20120;-80
2022/01/02 10:42:18;;;;;;;5.53;2.88;;;10.60;99.90;;;;;;5061065;28;20119;-81
2022/01/02 10:44:44;;;;;;;2.40;2.15;;;10.60;99.90;;;;;;5060073;28;20429;-83
2022/01/02 10:47:18;;;;;;;16.88;2.42;;;10.60;99.90;;;;;;5061476;28;20036;-80
2022/01/02 10:50:03;;;;;;;4.70;1.95;;;10.60;99.90;;;;;;5060709;28;20048;-81
2022/01/02 10:52:30;;;;;;;8.95;1.75;;;10.60;99.90;;;;;;5056519;28;20087;-93
2022/01/02 10:54:58;;;;;;;5.25;1.05;;;10.60;99.90;;;;;;5055514;28;20048;-82
2022/01/02 10:57:25;;;;;;;5.05;2.08;;;10.60;99.90;;;;;;5058959;28;20064;-81
2022/01/02 10:59:55;;;;;;;11.20;3.03;;;10.60;99.90;;;;;;5059447;28;20040;-82
2022/01/02 11:02:24;;;;;;;2.70;2.00;;;10.60;99.90;;;;;;5059707;28;20443;-82
2022/01/02 11:04:52;;;;;;;23.45;2.58;;;10.70;99.90;;;;;;5059516;28;20505;-86
2022/01/02 11:07:22;;;;;;;3.30;2.65;;;10.70;99.90;;;;;;5059572;28;20097;-82
2022/01/02 11:09:52;;;;;;;4.07;1.65;;;10.70;99.90;;;;;;5060549;28;20196;-82
2022/01/02 11:12:18;;;;;;;2.40;2.28;;;10.70;99.90;;;;;;5058673;28;20524;-84
2022/01/02 11:14:44;;;;;;;13.80;2.10;;;10.70;99.90;;;;;;5058923;28;20040;-81
2022/01/02 11:17:12;;;;;;;2.45;2.25;;;10.70;99.90;;;;;;5053490;28;20044;-83
2022/01/02 11:19:38;;;;;;;5.30;1.85;;;10.70;99.90;;;;;;5049269;28;20410;-81
2022/01/02 11:22:07;;;;;;;7.75;2.22;;;10.70;99.90;;;;;;5060220;28;20044;-86
2022/01/02 11:24:55;;;;;;;5.03;2.53;;;10.70;99.90;;;;;;5052492;28;20049;-85
2022/01/02 11:27:32;;;;;;;1.35;1.10;;;10.70;99.90;;;;;;5058659;28;20534;-83
2022/01/02 11:29:58;;;;;;;2.22;2.03;;;10.70;99.90;;;;;;5052961;28;20041;-84
2022/01/02 11:32:26;;;;;;;13.20;1.80;;;10.70;99.90;;;;;;5054519;28;20467;-84
2022/01/02 11:34:53;;;;;;;4.03;0.95;;;10.60;99.90;;;;;;5060095;28;20082;-85
2022/01/02 11:37:22;;;;;;;5.53;1.85;;;10.70;99.90;;;;;;5054294;28;20060;-85
2022/01/02 11:39:57;;;;;;;5.75;1.90;;;10.60;99.90;;;;;;5040936;28;20106;-85
2022/01/02 11:42:35;;;;;;;5.85;2.50;;;10.70;99.90;;;;;;5057865;28;20037;-85
2022/01/02 11:45:02;;;;;;;1.58;1.48;;;10.70;99.90;;;;;;5058941;28;20131;-84
2022/01/02 11:47:48;;;;;;;4.63;1.20;;;10.70;99.90;;;;;;5059165;28;20048;-83
2022/01/02 11:50:39;;;;;;;4.68;1.70;;;10.70;99.90;;;;;;5058758;28;20159;-84
2022/01/02 11:53:13;;;;;;;3.75;1.65;;;10.70;99.90;;;;;;5057995;28;20056;-85
2022/01/02 11:55:40;;;;;;;17.00;2.15;;;10.80;99.90;;;;;;5057463;28;20280;-84
2022/01/02 11:58:06;;;;;;;9.88;1.40;;;10.70;99.90;;;;;;5058668;28;20090;-83
2022/01/02 12:00:40;;;;;;;11.63;1.98;;;10.80;99.90;;;;;;5057126;28;20043;-87
2022/01/02 12:03:25;;;;;;;23.75;3.08;;;10.70;99.90;;;;;;5066629;28;20123;-84
2022/01/02 12:06:14;;;;;;;16.45;2.63;;;10.80;99.90;;;;;;5059020;28;20124;-85
2022/01/02 12:08:39;;;;;;;1.75;1.27;;;10.80;99.90;;;;;;5053079;28;20047;-90
2022/01/02 12:11:26;;;;;;;3.65;1.00;;;10.80;99.90;;;;;;5058185;28;20040;-85
2022/01/02 12:14:06;;;;;;;1.63;1.52;;;10.80;99.90;;;;;;5043970;28;20052;-84
2022/01/02 12:16:37;;;;;;;1.23;1.10;;;10.80;99.90;;;;;;5039568;28;20049;-78
2022/01/02 12:19:03;;;;;;;7.18;1.35;;;10.70;99.90;;;;;;5050576;28;20044;-77
2022/01/02 12:21:31;;;;;;;3.40;1.30;;;10.70;99.90;;;;;;5060015;28;20049;-77
2022/01/02 12:23:57;;;;;;;1.23;1.23;;;10.70;99.90;;;;;;5059520;28;20053;-75
2022/01/02 12:26:28;;;;;;;1.88;1.42;;;10.70;99.90;;;;;;5059275;28;20051;-76
2022/01/02 12:29:10;;;;;;;1.10;0.98;;;10.70;99.90;;;;;;5049413;28;20116;-76
2022/01/02 12:31:41;;;;;;;10.20;1.65;;;10.70;99.90;;;;;;5053938;28;20083;-75
2022/01/02 12:34:17;;;;;;;1.63;1.35;;;10.70;99.90;;;;;;5059548;28;20044;-75
2022/01/02 12:36:44;;;;;;;8.60;1.33;;;10.60;99.90;;;;;;5054425;28;20052;-76
2022/01/02 12:39:23;;;;;;;2.90;1.35;;;10.70;99.90;;;;;;5062372;28;20041;-75
2022/01/02 12:41:50;;;;;;;5.00;1.48;;;10.60;99.90;;;;;;5058998;28;20114;-78
2022/01/02 12:44:25;;;;;;;3.88;1.88;;;10.60;99.90;;;;;;5044997;28;20135;-80
2022/01/02 12:46:53;;;;;;;17.42;1.40;;;10.60;99.90;;;;;;5047300;28;20037;-79
2022/01/02 12:49:30;;;;;;;15.07;1.33;;;10.60;99.90;;;;;;5049469;28;20049;-79
2022/01/02 12:52:05;;;;;;;0.85;0.77;;;10.60;99.90;;;;;;5053702;28;20632;-79
2022/01/02 12:54:36;;;;;;;2.83;0.82;;;10.60;99.90;;;;;;5051686;28;20063;-78
2022/01/02 12:57:06;;;;;;;0.73;0.73;;;10.60;99.90;;;;;;5045853;28;20402;-78